Weather observations for the past three days for
Phifer Airfield - Wheatland
Metric (Imperial)
Date Time (mdt) Wind (kph) Vis. (km) Weather Sky Cond. Temperature (ºC) Relative Humidity Wind Chill (°C) Heat Index (°C) Pressure Precipitation (cm)
Air Dwpt 6 hour altimeter (cm) sea level (mb) 1 hr 3 hr 6 hr
Max. Min.
03 16:55 N 20 G 30 16.09 Partly Cloudy SCT090 SCT110 21.1 -5.7 16% 75.84 0.0
03 16:35 NE 7 16.09 Fair CLR 21.1 -5.5 16% 75.82 0.0
03 16:15 N 11 16.09 Fair CLR 23 -5 15% 75.82 0.0
03 15:55 NW 15 16.09 Fair CLR 23 -5.3 15% 75.84 0.0
03 15:35 N 15 16.09 Fair CLR 23.4 -5.4 14% 75.87 0.0
03 15:15 NW 9 16.09 Fair CLR 23.4 -5.2 14% 75.9 0.0
03 14:55 N 9 16.09 Fair CLR 21.8 -5.8 15% 75.92 0.0
03 14:35 N 13 16.09 Partly Cloudy SCT120 22.4 -5.9 15% 75.92 0.0
03 14:15 SE 7 16.09 Partly Cloudy SCT110 22.1 -5.8 15% 75.95 0.0
03 13:55 NE 15 16.09 Partly Cloudy SCT110 21.8 -5.4 16% 75.97 0.0
03 13:35 N 6 16.09 Partly Cloudy SCT120 21.9 -5.3 16% 76 0.0
03 13:15 SE 7 16.09 Partly Cloudy SCT110 21.8 -5.1 16% 76.02 0.0
03 12:55 E 17 16.09 Fair CLR 20.6 -3.8 19% 76.05 0.0
03 12:35 SE 11 16.09 Fair CLR 20.3 -3.4 20% 76.07 0.0
03 12:15 S 15 16.09 Fair CLR 19.6 -3 22% 76.12 0.0
03 11:55 E 7 16.09 Fair CLR 19.4 -2.4 19.4 4.4 23% 76.15 0.0
03 11:35 Calm 16.09 Fair CLR 18.4 -2.9 23% 76.17 0.0
03 11:15 E 7 16.09 Fair CLR 17.7 -2.2 26% 76.23 0.0
03 10:55 SE 7 16.09 Fair CLR 16.7 -1.8 28% 76.23 0.0
03 10:35 SE 13 16.09 Fair CLR 16.1 -1.6 30% 76.28 0.0
03 10:15 Calm 16.09 Fair CLR 15.6 -1.2 32% 76.28 0.0
03 09:55 SE 15 16.09 Fair CLR 15 -1.3 33% 76.28 0.0
03 09:35 SE 19 16.09 Fair CLR 15 -1.3 33% 76.3 0.0
03 09:15 E 13 16.09 Fair CLR 13.9 -1.4 35% 76.3 0.0
03 08:55 E 6 16.09 Fair CLR 12.9 -0.5 40% 76.33 0.0
03 08:35 Calm 16.09 Fair CLR 11.6 -0.5 44% 76.35 0.0
03 08:15 Calm 16.09 Fair CLR 11.1 -0.7 44% 76.33 0.0
03 07:55 Calm 16.09 Fair CLR 10.6 -1 45% 76.33 0.0
03 07:35 Calm 16.09 Fair CLR 9.4 -0.9 49% 76.33 0.0
03 07:15 Calm 16.09 Fair CLR 7.3 -1.3 55% 76.33 0.0
03 06:55 Calm 16.09 Fair CLR 7.5 -1.8 52% 76.3 0.0
03 06:35 Calm 16.09 Fair CLR 6.9 -1.6 55% 76.28 0.0
03 06:15 S 7 16.09 Fair CLR 5.4 -3.1 55% 4 76.25 0.0
03 05:55 S 7 16.09 Fair CLR 4.7 -3.6 11.9 4.7 55% 3 76.23 0.0
03 05:35 S 7 16.09 Fair CLR 4.7 -3.5 56% 3 76.23 0.0
03 05:15 S 7 16.09 Fair CLR 5.5 -3.7 52% 4 76.23 0.0
03 04:55 SW 6 16.09 Fair CLR 5.6 -3.4 53% 76.23 0.0
03 04:35 S 6 16.09 Fair CLR 5.9 -3.3 52% 76.23 0.0
03 04:15 SW 7 16.09 Fair CLR 6.2 -3.7 49% 5 76.23 0.0
03 03:55 SW 6 16.09 Fair CLR 5.9 -3.7 51% 76.23 0.0
03 03:35 Calm 16.09 Fair CLR 7.1 -4.5 44% 76.23 0.0
03 03:15 Calm 16.09 Fair CLR 7.3 -4 45% 76.23 0.0
03 02:55 Calm 16.09 Fair CLR 7.5 -3.1 47% 76.25 0.0
03 02:35 W 6 16.09 Fair CLR 9 -3.2 42% 76.25 0.0
03 02:15 W 6 16.09 Fair CLR 8.9 -2.2 46% 76.28 0.0
03 01:55 Calm 16.09 Fair CLR 9.3 -2.1 45% 76.28 0.0
03 01:35 Calm 16.09 Fair CLR 9.6 -3 41% 76.3 0.0
03 01:15 Calm 16.09 Fair CLR 10.1 -3.7 38% 76.28 0.0
03 00:55 E 6 16.09 Fair CLR 10.7 -5 33% 76.28 0.0
03 00:35 E 6 16.09 Fair CLR 10.7 -7.2 28% 76.28 0.0
03 00:15 E 9 16.09 Fair CLR 11.4 -7.7 26% 76.28 0.0
02 23:55 NE 9 16.09 Fair CLR 11 -7.7 24.1 9.7 26% 76.25 0.0
02 23:35 SW 9 16.09 Fair CLR 12.6 -8.5 22% 76.23 0.0
02 23:15 SE 6 16.09 Fair CLR 10 -7.6 28% 76.23 0.0
02 22:55 Calm 16.09 Fair CLR 11.7 -8 25% 76.2 0.0
02 22:35 SW 11 16.09 Fair CLR 12.1 -7.8 24% 76.2 0.0
02 22:15 SW 9 16.09 Fair CLR 12.9 -8.1 23% 76.2 0.0
02 21:55 SW 7 16.09 Fair CLR 13.3 -8.1 22% 76.2 0.0
02 21:35 W 9 16.09 Fair CLR 15.9 -11 15% 76.17 0.0
02 21:15 W 6 16.09 Fair CLR 16.3 -11.3 14% 76.17 0.0
02 20:55 SW 9 16.09 Fair CLR 16.9 -10.7 14% 76.17 0.0
02 20:35 Calm 16.09 Fair CLR 16.7 -11.2 14% 76.17 0.0
02 20:15 Calm 16.09 Fair CLR 18 -11.7 12% 76.15 0.0
02 19:55 W 7 16.09 Fair CLR 19 -11.3 12% 76.15 0.0
02 19:35 W 9 16.09 Fair CLR 20.6 -12.3 10% 76.12 0.0
02 19:15 W 9 16.09 Fair CLR 21.7 -12.9 9% 76.12 0.0
02 18:55 W 9 16.09 Fair CLR 21.7 -13.8 8% 76.12 0.0
02 18:35 NW 15 16.09 Fair CLR 23 -13.9 7% 76.12 0.0
02 18:15 W 17 G 26 16.09 Fair CLR 23.5 -13.8 7% 76.12 0.0
02 17:55 NW 11 G 28 16.09 Fair CLR 24.1 -13 24.9 20 7% 24 76.15 0.0
02 17:35 N 9 G 26 16.09 Fair CLR 23.8 -15 6% 76.17 0.0
02 17:15 NW 19 G 28 16.09 Fair CLR 24.4 -13.7 7% 24 76.17 0.0
02 16:55 N 9 G 15 16.09 Fair CLR 24.3 -13.4 7% 24 76.17 0.0
02 16:35 NW 11 G 30 16.09 Fair CLR 24.4 -11.5 8% 24 76.17 0.0
02 16:15 W 20 G 30 16.09 Fair CLR 24.6 -11.9 8% 24 76.2 0.0
02 15:55 NW 15 16.09 Fair CLR 24.6 -12 8% 24 76.2 0.0
02 15:35 NE 13 16.09 Fair CLR 24.7 -9.9 9% 24 76.23 0.0
02 15:15 NE 6 16.09 Fair CLR 23.5 -10.7 9% 76.25 0.0
02 14:55 E 7 16.09 Fair CLR 23.4 -10.8 9% 76.28 0.0
02 14:35 N 6 16.09 Fair CLR 23.5 -10.7 9% 76.28 0.0
02 14:15 N 7 16.09 Fair CLR 23 -11.1 9% 76.3 0.0
02 13:55 NW 7 16.09 Fair CLR 22.8 -11.8 9% 76.33 0.0
02 13:35 W 13 16.09 Fair CLR 22.6 -10.3 10% 76.35 0.0
02 13:15 SW 13 16.09 Fair CLR 22.8 -9.5 11% 76.38 0.0
02 12:55 SW 11 16.09 Fair CLR 22 -9.4 11% 76.4 0.0
02 12:35 W 11 16.09 Fair CLR 21.5 -9.4 12% 76.4 0.0
02 12:15 W 13 16.09 Fair CLR 20.9 -10 12% 76.43 0.0
02 11:55 SW 6 16.09 Fair CLR 20.1 -11.3 20.6 4.1 11% 76.48 0.0
02 11:35 W 13 16.09 Fair CLR 19.7 -10.1 12% 76.5 0.0
02 11:15 W 13 16.09 Fair CLR 20.1 -9.8 12% 76.5 0.0
02 10:55 NW 9 16.09 Fair CLR 19.6 -9.6 13% 76.5 0.0
02 10:35 W 13 16.09 Fair CLR 19 -10.3 13% 76.53 0.0
02 10:15 NW 13 16.09 Fair CLR 18.5 -9.3 14% 76.53 0.0
02 09:55 NW 11 16.09 Fair CLR 18.2 -8.3 16% 76.56 0.0
02 09:35 W 9 16.09 Fair CLR 17.4 -6.6 19% 76.56 0.0
02 09:15 W 9 16.09 Fair CLR 16.7 -5.6 21% 76.56 0.0
02 08:55 W 13 16.09 Fair CLR 15.3 -4.8 25% 76.56 0.0
02 08:35 W 13 16.09 Fair CLR 14 -4.6 27% 76.56 0.0
02 08:15 SW 9 16.09 Fair CLR 12.5 -3.8 32% 76.58 0.0
02 07:55 SW 13 16.09 Fair CLR 11.4 -3.8 35% 76.56 0.0
02 07:35 SW 13 16.09 Fair CLR 9.7 -3.5 40% 8 76.58 0.0
02 07:15 SW 13 16.09 Fair CLR 8.5 -3.2 44% 7 76.58 0.0
02 06:55 SW 13 16.09 Fair CLR 7.1 -3.1 49% 5 76.58 0.0
02 06:35 SW 15 16.09 Fair CLR 5.8 -3.2 53% 3 76.56 0.0
02 06:15 SW 11 16.09 Fair CLR 4.8 -3.2 57% 3 76.56 0.0
02 05:55 SW 15 16.09 Fair CLR 4 -3.2 6.8 1.5 60% 1 76.58 0.0
02 05:35 SW 13 16.09 Fair CLR 3.7 -3.1 62% 1 76.58 0.0
02 05:15 SW 11 16.09 Fair CLR 3.5 -3 63% 1 76.58 0.0
02 04:55 SW 11 16.09 Fair CLR 3.1 -2.7 66% 0 76.58 0.0
02 04:35 SW 11 16.09 Fair CLR 2.7 -2.9 67% 0 76.61 0.0
02 04:15 SW 11 16.09 Fair CLR 3.3 -3 64% 1 76.61 0.0
02 03:55 SW 7 16.09 Fair CLR 2.6 -3 67% 1 76.61 0.0
02 03:35 SW 7 16.09 Fair CLR 2.4 -2.8 69% 1 76.61 0.0
02 03:15 SW 7 16.09 Fair CLR 1.6 -2.7 73% -0 76.61 0.0
02 02:55 SW 7 16.09 Fair CLR 1.9 -2.9 71% 0 76.61 0.0
02 02:35 SW 6 16.09 Fair CLR 1.6 -3 72% 76.61 0.0
02 02:15 S 9 16.09 Fair CLR 3.7 -3.1 62% 2 76.63 0.0
02 01:55 SE 6 16.09 Fair CLR 3.2 -3.5 62% 76.63 0.0
02 01:35 Calm 16.09 Fair CLR 4.3 -3.2 59% 76.66 0.0
02 01:15 Calm 16.09 Fair CLR 5.1 -3.3 55% 76.66 0.0
02 00:55 Calm 16.09 Fair CLR 5.7 -3.5 52% 76.68 0.0
02 00:35 Calm 16.09 Fair CLR 6.2 -3.5 50% 76.68 0.0
02 00:15 Calm 16.09 Fair CLR 5.8 -3.7 51% 76.68 0.0
01 23:55 Calm 16.09 Fair CLR 7 -4 16.5 7 46% 76.66 0.0
01 23:35 E 11 16.09 Fair CLR 7.2 -3.7 46% 5 76.66 0.0
01 23:15 E 6 16.09 Fair CLR 8.1 -4.1 42% 76.66 0.0
01 22:55 E 11 16.09 Fair CLR 8.8 -4.3 40% 7 76.63 0.0
01 22:35 E 19 G 26 16.09 Fair CLR 9.4 -4.5 38% 7 76.66 0.0
01 22:15 NE 6 16.09 Fair CLR 9.7 -5.2 35% 76.61 0.0
01 21:55 E 11 16.09 Fair CLR 9.6 -4.9 36% 8 76.58 0.0
01 21:35 E 6 16.09 Fair CLR 11 -5.4 31% 76.56 0.0
01 21:15 N 6 16.09 Fair CLR 11.5 -5.9 29% 76.53 0.0
01 20:55 Calm 16.09 Partly Cloudy SCT100 10.6 -5.5 32% 76.5 0.0
01 20:35 Calm 16.09 Partly Cloudy SCT110 11.7 -5.6 30% 76.48 0.0
01 20:15 Calm 16.09 Partly Cloudy SCT110 13 -5.8 27% 76.45 0.0
01 19:55 N 6 16.09 Partly Cloudy SCT110 14.2 -6.4 24% 76.45 0.0
01 19:35 N 7 16.09 Mostly Cloudy BKN110 15.1 -6.6 22% 76.43 0.0
01 19:15 N 13 16.09 Partly Cloudy SCT110 15.6 -7.1 20% 76.4 0.0
01 18:55 N 15 16.09 Partly Cloudy SCT110 15.8 -7.2 20% 76.4 0.0
01 18:35 N 17 G 26 16.09 Partly Cloudy SCT110 16.1 -7.6 19% 76.4 0.0
01 18:15 N 15 16.09 Partly Cloudy SCT110 16.2 -7.9 18% 76.4 0.0
01 17:55 N 17 G 26 16.09 Partly Cloudy SCT110 16.5 -8.6 18.9 15 17% 76.4 0.0
01 17:35 N 15 G 31 16.09 Partly Cloudy SCT120 17.2 -9.8 15% 76.4 0.0
01 17:15 N 22 G 30 16.09 Partly Cloudy SCT110 17.6 -9.7 15% 76.4 0.0
01 16:55 N 20 G 35 16.09 Partly Cloudy SCT110 18.7 -9.8 14% 76.4 0.0
01 16:35 N 19 G 35 16.09 Partly Cloudy SCT110 17.9 -10 14% 76.4 0.0
01 16:15 N 17 G 39 16.09 Partly Cloudy SCT100 17.4 -9.9 15% 76.4 0.0
01 15:55 NW 20 G 48 16.09 Partly Cloudy SCT100 17.1 -9.9 15% 76.4 0.0
01 15:35 NW 24 G 33 16.09 Partly Cloudy SCT090 18.6 -9.1 14% 76.43 0.0
01 15:15 N 17 G 33 16.09 Mostly Cloudy BKN090 17.9 -9.6 14% 76.43 0.0
01 14:55 NW 19 G 33 16.09 Mostly Cloudy BKN090 18.2 -8.7 15% 76.45 0.0
01 14:35 NW 17 G 35 16.09 Partly Cloudy SCT090 17.9 -9.5 15% 76.48 0.0
01 14:15 N 13 G 30 16.09 Fair CLR 17.2 -9.4 15% 76.48 0.0
01 13:55 NW 19 G 28 16.09 Fair CLR 17.4 -9.3 15% 76.48 0.0
01 13:35 NW 13 G 33 16.09 Fair CLR 16.5 -10.2 15% 76.5 0.0
01 13:15 N 19 G 31 16.09 Fair CLR 16.6 -9.3 16% 76.5 0.0
01 12:55 NW 13 G 31 16.09 Fair CLR 16.1 -9.8 16% 76.5 0.0
01 12:35 N 15 16.09 Fair CLR 16 -8.5 18% 76.5 0.0
01 12:15 N 24 G 31 16.09 Fair CLR 15.6 -8.4 18% 76.5 0.0
01 11:55 N 11 G 26 16.09 Fair CLR 15.2 -7.4 15.3 1.5 20% 76.56 0.0
01 11:35 N 9 16.09 Fair CLR 14.9 -8.3 19% 76.56 0.0
01 11:15 N 20 G 30 16.09 Fair CLR 14.5 -7.6 21% 76.56 0.0
01 10:55 N 19 16.09 Fair CLR 14.3 -7.8 21% 76.56 0.0
01 10:35 N 13 16.09 Fair CLR 14.1 -8.7 20% 76.56 0.0
01 10:15 N 15 16.09 Fair CLR 13.5 -6.7 24% 76.56 0.0
01 09:55 NE 17 G 28 16.09 Fair CLR 12.7 -6.1 27% 76.56 0.0
01 09:35 NW 15 16.09 Fair CLR 12.6 -6.4 26% 76.56 0.0
01 09:15 NW 7 16.09 Fair CLR 12.1 -6.4 27% 76.56 0.0
01 08:55 W 13 16.09 Fair CLR 11 -5.2 32% 76.56 0.0
01 08:35 W 11 16.09 Fair CLR 10.4 -3.4 38% 76.56 0.0
01 08:15 SW 11 16.09 Fair CLR 9 -2.7 44% 8 76.56 0.0
01 07:55 W 9 16.09 Fair CLR 7.9 -1.2 53% 7 76.56 0.0
01 07:35 SW 9 16.09 Fair CLR 6.4 -0.2 63% 5 76.56 0.0
01 07:15 SW 11 16.09 Fair CLR 5.1 -0.4 68% 3 76.56 0.0
01 06:55 SW 13 16.09 Fair CLR 3.5 -0.6 75% 1 76.56 0.0
01 06:35 SW 11 16.09 Fair CLR 2.3 -1.1 79% -0 76.53 0.0
01 06:15 SW 13 16.09 Fair CLR 1.8 -1.3 80% -1 76.53 0.0
01 05:55 SW 11 16.09 Fair CLR 1.5 -1.5 4 1.5 81% -1 76.53 0.0
01 05:35 SW 9 16.09 Fair CLR 1.9 -1.3 80% -1 76.53 0.0
01 05:15 SW 9 16.09 Fair CLR 1.8 -1.2 81% -1 76.53 0.0
01 04:55 SW 11 16.09 Fair CLR 2 -1.1 80% -1 76.56 0.0
01 04:35 SW 11 16.09 Fair CLR 2 -1.1 80% -1 76.56 0.0
01 04:15 SW 13 16.09 Fair CLR 2 -1 81% -1 76.56 0.0
01 03:55 SW 11 16.09 Fair CLR 2.5 -0.9 79% -0 76.56 0.0
01 03:35 SW 11 16.09 Fair CLR 2.5 -0.8 79% -0 76.56 0.0
01 02:55 SW 9 16.09 Fair CLR 2.9 -1 76% 1 76.53 0.0
01 02:35 SW 9 16.09 Fair CLR 2.8 -1.2 75% 1 76.56 0.0
01 02:15 SW 9 16.09 Fair CLR 3.1 -1.3 73% 1 76.56 0.0
01 01:55 SW 11 16.09 Fair CLR 2.9 -2 71% 0 76.56 0.0
01 01:35 SW 11 16.09 Fair CLR 2.8 -2.5 68% 0 76.56 0.0
01 01:15 SW 13 16.09 Fair CLR 3 -2.4 68% 0 76.56 0.0
01 00:55 SW 13 16.09 Fair CLR 3.1 -2.6 67% 0 76.56 0.0
01 00:35 SW 11 16.09 Fair CLR 3.3 -3.1 63% 1 76.58 0.0
01 00:15 SW 9 16.09 Fair CLR 3.7 -3.8 58% 2 76.58 0.0
30 23:55 SW 7 16.09 Fair CLR 3.6 -4 13.2 3.6 58% 2 76.58 0.0
30 23:35 SW 11 16.09 Fair CLR 4.2 -4 56% 2 76.56 0.0
30 23:15 SW 9 16.09 Fair CLR 4.7 -4.6 51% 3 76.58 0.0
30 22:55 SW 7 16.09 Fair CLR 5 -4.8 50% 4 76.58 0.0
30 22:35 Calm 16.09 Fair CLR 5.5 -5.7 45% 76.58 0.0
30 22:15 Calm 16.09 Fair CLR 6.3 -7 38% 76.58 0.0
30 21:55 Calm 16.09 Fair CLR 6.3 -6.3 40% 76.58 0.0
30 21:35 Calm 16.09 Fair CLR 7.1 -6.8 37% 76.56 0.0
30 21:15 N 6 16.09 Partly Cloudy SCT100 7.6 -7.2 35% 76.56 0.0
30 20:55 Calm 16.09 Partly Cloudy SCT100 9 -7.7 30% 76.56 0.0
30 20:35 NE 6 16.09 Fair CLR 9.3 -7.7 30% 76.5 0.0
30 20:15 N 6 16.09 Partly Cloudy SCT095 10.2 -7.9 27% 76.5 0.0
30 19:55 N 7 16.09 Mostly Cloudy BKN095 10.9 -8 26% 76.48 0.0
30 19:35 N 9 16.09 Mostly Cloudy BKN095 11.5 -8.7 24% 76.48 0.0
30 19:15 N 9 16.09 Partly Cloudy SCT095 12.3 -9.7 21% 76.45 0.0
30 18:55 N 17 16.09 Partly Cloudy SCT090 12.2 -9.5 21% 76.43 0.0
30 18:35 N 6 16.09 Mostly Cloudy BKN090 13.2 -9.5 20% 76.43 0.0
30 18:15 N 9 16.09 Partly Cloudy SCT085 12.6 -9.1 21% 76.43 0.0
30 17:35 NE 9 16.09 Partly Cloudy SCT085 12.8 -8.9 21% 76.43 0.0
30 17:15 NE 17 16.09 Partly Cloudy SCT090 13.4 -8.4 21% 76.43 0.0
Date Time (mdt) Wind (kph) Vis. (km) Weather Sky Cond. Air Dwpt Max. Min. Relative Humidity Wind Chill (°C) Heat Index (°C) altimeter (cm) sea level (mb) 1 hr 3 hr 6 hr
6 hour
Temperature (ºC) Pressure Precipitation (cm)